VEAT/IXA METAR and TAF weather

Enter ICAO airport designator
Station Type Date Time Source
VEAT METAR 2020/01/24 03:00 UTC NOAA

VEAT 240300Z 00000KT 1000 R18/0900 BR NSC 14/12 Q1018 NOSIG


Station Type Date Time Source
VEAT Decoded METAR 2020/01/24 03:00 UTC NOAA

Agartala, India (VEAT) 23-53N 091-15E 16M
Jan 23, 2020 - 10:00 PM EST / 2020.01.24 0300 UTC
Wind: Calm:0
Visibility: less than 1 mile:0
Weather: mist
Temperature: 57 F (14 C)
Dew Point: 53 F (12 C)
Relative Humidity: 87%
Pressure (altimeter): 30.06 in. Hg (1018 hPa)
ob: VEAT 240300Z 00000KT 1000 R18/0900 BR NSC 14/12 Q1018 NOSIG
cycle: 3

Station Type Date Time Source
VEAT TAF 2013/07/19 12:00 UTC NOAA

TAF VEAT 190900Z 1912/1921 16008KT 5000 HZ SCT018 FEW030CB BKN100
TEMPO 1912/1921 3000 -TSRA SCT015 FEW025CB OVC090

Example: see airport list